Time;durP1;ratioP1;P1;durP2;ratioP2;P2;SDS_P1;SDS_P2;PMS_P1;PMS_P2;Temp;Humidity;BMP_temperature;BMP_pressure;BME280_temperature;BME280_humidity;BME280_pressure;Samples;Min_cycle;Max_cycle;Signal;HPM_P1;HPM_P2
2023/09/01 00:00:12;;;;;;;3.25;1.70;;;;;;;25.32;52.27;101140.16;5033362;28;20053;-62
2023/09/01 00:02:45;;;;;;;2.47;1.52;;;;;;;25.32;52.12;101143.75;5034248;28;20056;-62
2023/09/01 00:05:12;;;;;;;3.45;1.58;;;;;;;25.33;52.29;101150.03;5033492;28;20050;-61
2023/09/01 00:07:39;;;;;;;2.67;1.45;;;;;;;25.33;52.31;101145.44;5032749;28;20056;-61
2023/09/01 00:10:07;;;;;;;3.25;1.73;;;;;;;25.33;52.25;101141.91;5033138;28;20415;-62
2023/09/01 00:12:34;;;;;;;2.22;1.50;;;;;;;25.33;52.40;101139.19;5033443;28;20048;-62
2023/09/01 00:15:03;;;;;;;3.80;1.92;;;;;;;25.33;52.26;101141.91;5033044;28;20048;-62
2023/09/01 00:17:30;;;;;;;4.03;1.50;;;;;;;25.33;52.20;101139.19;5039319;28;20041;-58
2023/09/01 00:19:59;;;;;;;2.63;1.55;;;;;;;25.33;52.31;101136.47;5037390;28;20061;-61
2023/09/01 00:22:26;;;;;;;2.60;1.50;;;;;;;25.34;52.10;101140.88;5038705;28;20049;-62
2023/09/01 00:24:53;;;;;;;2.65;1.60;;;;;;;25.34;52.41;101141.72;5038100;28;20041;-61
2023/09/01 00:27:21;;;;;;;2.17;1.10;;;;;;;25.34;52.33;101141.72;5040852;28;20049;-62
2023/09/01 00:29:48;;;;;;;3.95;2.15;;;;;;;25.34;52.22;101140.88;5038036;28;20040;-56
2023/09/01 00:32:16;;;;;;;3.67;1.50;;;;;;;25.35;52.07;101150.69;5040787;28;20389;-57
2023/09/01 00:34:44;;;;;;;2.95;1.67;;;;;;;25.33;52.23;101142.75;5035693;28;20049;-57
2023/09/01 00:37:11;;;;;;;3.63;1.80;;;;;;;25.33;52.06;101145.44;5039308;28;20488;-57
2023/09/01 00:39:38;;;;;;;3.28;1.70;;;;;;;25.35;52.15;101145.28;5037190;28;20068;-57
2023/09/01 00:42:06;;;;;;;3.10;1.63;;;;;;;25.35;52.19;101147.97;5042716;28;20052;-57
2023/09/01 00:44:33;;;;;;;4.15;1.48;;;;;;;25.34;52.30;101147.13;5041627;28;20052;-57
2023/09/01 00:47:01;;;;;;;4.28;1.60;;;;;;;25.34;52.25;101154.44;5048482;28;20064;-57
2023/09/01 00:49:28;;;;;;;3.38;1.45;;;;;;;25.35;52.39;101147.97;5044876;28;20044;-57
2023/09/01 00:51:56;;;;;;;3.08;1.50;;;;;;;25.34;52.50;101152.56;5046802;28;20049;-57
2023/09/01 00:54:24;;;;;;;3.85;1.92;;;;;;;25.34;52.21;101139.00;5045598;28;20392;-56
2023/09/01 00:56:54;;;;;;;3.90;2.13;;;;;;;25.34;51.99;101147.13;5042964;28;20057;-57
2023/09/01 00:59:21;;;;;;;2.60;1.42;;;;;;;25.35;52.28;101146.13;5047012;28;20045;-61
2023/09/01 01:01:50;;;;;;;2.45;1.50;;;;;;;25.35;52.22;101147.97;5045189;28;20056;-61
2023/09/01 01:04:20;;;;;;;2.45;1.48;;;;;;;25.34;52.13;101154.44;5046188;28;20045;-61
2023/09/01 01:06:50;;;;;;;2.50;1.50;;;;;;;25.34;52.04;101163.41;5049158;28;20589;-62
2023/09/01 01:09:39;;;;;;;2.63;1.48;;;;;;;25.34;52.31;101159.84;5045726;28;20052;-62
2023/09/01 01:12:35;;;;;;;4.75;1.83;;;;;;;25.33;52.11;101161.72;5045918;28;20050;-61
2023/09/01 01:15:09;;;;;;;3.60;1.60;;;;;;;25.33;52.23;101161.72;5039433;28;20045;-61
2023/09/01 01:17:39;;;;;;;2.95;1.45;;;;;;;25.34;52.01;101165.25;5045854;28;20065;-57
2023/09/01 01:20:31;;;;;;;3.55;1.73;;;;;;;25.34;52.22;101170.69;5046026;28;20052;-61
2023/09/01 01:23:01;;;;;;;2.10;1.33;;;;;;;25.34;52.20;101163.41;5045063;28;20052;-62
2023/09/01 01:25:29;;;;;;;2.30;1.48;;;;;;;25.34;52.08;101162.56;5044420;28;20079;-61
2023/09/01 01:27:57;;;;;;;2.25;1.20;;;;;;;25.34;52.09;101159.84;5041425;28;20053;-61
2023/09/01 01:30:26;;;;;;;4.07;1.80;;;;;;;25.34;52.14;101159.84;5037811;28;20044;-61
2023/09/01 01:32:54;;;;;;;4.60;1.67;;;;;;;25.33;52.31;101161.72;5039436;28;20060;-62
2023/09/01 01:35:45;;;;;;;2.88;1.35;;;;;;;25.34;52.14;101168.81;5045019;28;20488;-61
2023/09/01 01:38:18;;;;;;;2.90;1.67;;;;;;;25.35;52.04;101169.66;5039438;28;20057;-56
2023/09/01 01:40:49;;;;;;;3.17;1.63;;;;;;;25.34;52.04;101167.97;5038275;28;20519;-56
2023/09/01 01:43:23;;;;;;;3.03;1.35;;;;;;;25.34;52.13;101174.25;5043833;28;20064;-57
2023/09/01 01:45:50;;;;;;;3.47;1.52;;;;;;;25.35;52.30;101177.78;5039900;28;20120;-56
2023/09/01 01:48:18;;;;;;;3.35;1.65;;;;;;;25.34;52.20;101173.41;5041178;28;20049;-61
2023/09/01 01:50:45;;;;;;;2.30;1.35;;;;;;;25.35;52.17;101180.50;5039529;28;20483;-61
2023/09/01 01:53:13;;;;;;;3.75;1.65;;;;;;;25.34;52.13;101173.41;5041747;28;20060;-61
2023/09/01 01:55:40;;;;;;;2.60;1.65;;;;;;;25.35;52.39;101177.78;5039056;28;20052;-61
2023/09/01 01:58:07;;;;;;;3.25;1.65;;;;;;;25.34;52.49;101187.78;5034713;28;20402;-56
2023/09/01 02:00:35;;;;;;;3.03;1.60;;;;;;;25.33;52.23;101191.53;5043742;28;20052;-56
2023/09/01 02:03:03;;;;;;;2.97;1.60;;;;;;;25.34;52.51;101186.94;5044460;28;20052;-56
2023/09/01 02:05:30;;;;;;;3.92;1.42;;;;;;;25.33;52.37;101199.66;5039248;28;20480;-56
2023/09/01 02:07:57;;;;;;;4.80;1.83;;;;;;;25.33;52.41;101193.38;5038721;28;20072;-57
2023/09/01 02:10:25;;;;;;;2.67;1.63;;;;;;;25.34;52.40;101192.38;5039366;28;20052;-56
2023/09/01 02:12:52;;;;;;;2.55;1.40;;;;;;;25.33;52.35;101188.81;5037217;28;20045;-56
2023/09/01 02:15:19;;;;;;;3.90;1.80;;;;;;;25.33;52.51;101196.09;5044218;28;20399;-57
2023/09/01 02:17:47;;;;;;;4.32;1.52;;;;;;;25.34;52.32;101192.38;5046095;28;20430;-61
2023/09/01 02:20:18;;;;;;;3.00;1.70;;;;;;;25.33;52.45;101187.97;5044987;28;20060;-61
2023/09/01 02:22:50;;;;;;;3.30;1.65;;;;;;;25.34;52.53;101192.38;5045761;28;20060;-61
2023/09/01 02:25:17;;;;;;;3.63;1.58;;;;;;;25.34;52.43;101192.38;5046264;28;20507;-61
2023/09/01 02:27:45;;;;;;;2.67;1.73;;;;;;;25.33;52.39;101196.94;5044692;28;20054;-61
2023/09/01 02:30:13;;;;;;;2.72;1.52;;;;;;;25.33;52.40;101196.94;5038644;28;20388;-61
2023/09/01 02:32:41;;;;;;;2.90;1.45;;;;;;;25.33;52.53;101196.94;5039526;28;20064;-61
2023/09/01 02:35:09;;;;;;;2.80;1.80;;;;;;;25.33;52.40;101198.81;5043044;28;20044;-62
2023/09/01 02:37:36;;;;;;;2.83;1.50;;;;;;;25.33;52.42;101201.50;5033359;28;20064;-58
2023/09/01 02:40:10;;;;;;;3.95;1.80;;;;;;;25.33;52.27;101194.22;5040352;28;20045;-57
2023/09/01 02:42:39;;;;;;;3.60;1.80;;;;;;;25.33;52.61;101194.22;5039107;28;20064;-57
2023/09/01 02:45:12;;;;;;;3.38;1.50;;;;;;;25.33;52.43;101193.38;5038459;28;20052;-57
2023/09/01 02:47:43;;;;;;;;;;;;;;;25.31;52.53;101192.69;5039449;28;20068;-57
2023/09/01 02:50:10;;;;;;;;;;;;;;;25.31;52.15;101189.97;5042448;28;19925;-57
2023/09/01 02:52:38;;;;;;;;;;;;;;;25.30;52.16;101188.28;5044886;28;20402;-57
2023/09/01 02:55:06;;;;;;;;;;;;;;;25.31;51.93;101179.13;5033561;28;19930;-57
2023/09/01 02:57:35;;;;;;;;;;;;;;;25.31;52.14;101179.97;5038854;28;19928;-57
2023/09/01 03:00:14;;;;;;;;;;;;;;;25.31;51.85;101184.56;5044064;28;20282;-57
2023/09/01 03:02:42;;;;;;;;;;;;;;;25.33;51.74;101187.97;5032496;28;19921;-57
2023/09/01 03:05:10;;;;;;;;;;;;;;;25.32;51.67;101184.41;5038781;28;19921;-57
2023/09/01 03:07:40;;;;;;;;;;;;;;;25.32;51.47;101186.25;5040645;28;20407;-57
2023/09/01 03:10:08;;;;;;;;;;;;;;;25.33;51.35;101182.53;5037479;28;20271;-57
2023/09/01 03:12:37;;;;;;;;;;;;;;;25.33;51.35;101183.38;5041530;28;19920;-56
2023/09/01 03:15:06;;;;;;;;;;;;;;;25.34;51.17;101178.81;5038521;28;19921;-56
2023/09/01 03:17:33;;;;;;;;;;;;;;;25.32;51.06;101179.00;5039816;28;20047;-57
2023/09/01 03:20:00;;;;;;;;;;;;;;;25.34;51.01;101184.22;5037647;28;19921;-56
2023/09/01 03:22:28;;;;;;;;;;;;;;;25.34;50.87;101181.53;5038286;28;20387;-57
2023/09/01 03:24:56;;;;;;;;;;;;;;;25.33;50.73;101182.53;5036312;28;19921;-57
2023/09/01 03:27:23;;;;;;;;;;;;;;;25.33;50.63;101182.53;5039861;28;19925;-57
2023/09/01 03:29:51;;;;;;;;;;;;;;;25.33;50.64;101179.84;5037258;28;19920;-57
2023/09/01 03:32:19;;;;;;;;;;;;;;;25.33;50.70;101174.41;5039150;28;19921;-56
2023/09/01 03:34:46;;;;;;;;;;;;;;;25.33;50.57;101177.13;5044524;28;19921;-56
2023/09/01 03:37:14;;;;;;;;;;;;;;;25.33;50.47;101193.38;5041922;28;19936;-56
2023/09/01 03:39:41;;;;;;;;;;;;;;;25.34;50.41;101189.66;5043655;28;20387;-57
2023/09/01 03:42:08;;;;;;;;;;;;;;;25.32;50.35;101181.69;5045814;28;19921;-57
2023/09/01 03:44:35;;;;;;;;;;;;;;;25.33;50.37;101182.53;5041762;28;19928;-56
2023/09/01 03:47:03;;;;;;;;;;;;;;;25.33;50.26;101190.69;5043668;28;19925;-57
2023/09/01 03:49:31;;;;;;;;;;;;;;;25.32;50.24;101197.97;5043671;28;19921;-56
2023/09/01 03:51:58;;;;;;;;;;;;;;;25.32;49.93;101197.09;5045202;28;19921;-57
2023/09/01 03:54:26;;;;;;;;;;;;;;;25.32;49.66;101199.78;5041679;28;19921;-56
2023/09/01 03:56:53;;;;;;;;;;;;;;;25.32;49.68;101207.91;5043507;28;19937;-57
2023/09/01 03:59:21;;;;;;;;;;;;;;;25.31;49.52;101193.53;5042691;28;19927;-61
2023/09/01 04:01:48;;;;;;;;;;;;;;;25.31;49.52;101189.97;5039926;28;19921;-62
2023/09/01 04:04:17;;;;;;;;;;;;;;;25.32;49.36;101194.38;5045074;28;19928;-61
2023/09/01 04:06:44;;;;;;;;;;;;;;;25.31;49.32;101189.97;5042257;28;19936;-61
2023/09/01 04:09:11;;;;;;;;;;;;;;;25.32;49.20;101197.09;5043004;28;19921;-56
2023/09/01 04:11:38;;;;;;;;;;;;;;;25.31;49.01;101195.41;5044985;28;19921;-56
2023/09/01 04:14:07;;;;;;;;;;;;;;;25.30;49.09;101194.53;5040216;28;19921;-56
2023/09/01 04:16:35;;;;;;;;;;;;;;;25.30;48.94;101199.13;5041132;28;20295;-56
2023/09/01 04:19:02;;;;;;;;;;;;;;;25.30;48.88;101196.41;5044253;28;20489;-61
2023/09/01 04:21:30;;;;;;;;;;;;;;;25.29;48.77;101206.41;5043976;28;20022;-61
2023/09/01 04:23:58;;;;;;;;;;;;;;;25.29;48.84;101208.28;5040192;28;20290;-62
2023/09/01 04:26:26;;;;;;;;;;;;;;;25.27;48.73;101204.84;5042802;28;19921;-61
2023/09/01 04:28:53;;;;;;;;;;;;;;;25.28;48.65;101217.38;5043958;28;19925;-62
2023/09/01 04:31:28;;;;;;;;;;;;;;;25.27;48.84;101207.56;5044588;28;19921;-61
2023/09/01 04:33:59;;;;;;;;;;;;;;;25.27;48.75;101218.41;5034482;28;19921;-61
2023/09/01 04:36:28;;;;;;;;;;;;;;;25.28;48.64;101220.09;5040821;28;19929;-60
2023/09/01 04:39:14;;;;;;;;;;;;;;;25.26;48.44;101231.13;5032604;28;19935;-61
2023/09/01 04:41:43;;;;;;;;;;;;;;;25.27;48.47;101231.97;5040575;28;19924;-61
2023/09/01 04:44:12;;;;;;;;;;;;;;;25.28;48.34;101233.66;5043254;28;19921;-61
2023/09/01 04:46:39;;;;;;;;;;;;;;;25.26;48.30;101230.25;5035767;28;19921;-61
2023/09/01 04:49:06;;;;;;;;;;;;;;;25.26;48.28;101224.84;5044838;28;19928;-57
2023/09/01 04:51:34;;;;;;;;;;;;;;;25.25;48.19;101228.56;5040828;28;19925;-57
2023/09/01 04:54:02;;;;;;;;;;;;;;;25.25;47.91;101223.16;5043107;28;19920;-57
2023/09/01 04:56:30;;;;;;;;;;;;;;;25.25;47.80;101228.56;5036914;28;20305;-57
2023/09/01 04:58:58;;;;;;;;;;;;;;;25.25;47.89;101234.84;5044098;28;19927;-62
2023/09/01 05:01:25;;;;;;;;;;;;;;;25.24;47.65;101232.28;5040846;28;19943;-61
2023/09/01 05:03:53;;;;;;;;;;;;;;;25.24;47.44;101225.03;5045041;28;19928;-62
2023/09/01 05:06:20;;;;;;;;;;;;;;;25.24;47.43;101224.13;5040148;28;19928;-62
2023/09/01 05:08:47;;;;;;;;;;;;;;;25.23;47.37;101228.72;5045323;28;19921;-61
2023/09/01 05:11:14;;;;;;;;;;;;;;;25.24;47.43;101232.28;5040365;28;19921;-61
2023/09/01 05:13:42;;;;;;;;;;;;;;;25.24;47.36;101226.84;5041275;28;20283;-61
2023/09/01 05:16:10;;;;;;;;;;;;;;;25.23;47.34;101230.59;5043424;28;20393;-62
2023/09/01 05:18:37;;;;;;;;;;;;;;;25.22;47.18;101234.31;5044628;28;19928;-61
2023/09/01 05:21:05;;;;;;;;;;;;;;;25.22;47.09;101239.72;5040370;28;20378;-61
2023/09/01 05:23:32;;;;;;;;;;;;;;;25.21;46.95;101244.31;5040507;28;19921;-61
2023/09/01 05:26:00;;;;;;;;;;;;;;;25.21;47.22;101244.31;5043154;28;19921;-61
2023/09/01 05:28:27;;;;;;;;;;;;;;;25.20;47.14;101253.44;5040314;28;20276;-61
2023/09/01 05:30:58;;;;;;;;;;;;;;;25.21;47.03;101246.16;5046882;28;20379;-61
2023/09/01 05:33:27;;;;;;;;;;;;;;;25.20;47.18;101247.16;5045991;28;19928;-61
2023/09/01 05:35:54;;;;;;;;;;;;;;;25.21;47.00;101259.72;5041203;28;19925;-62
2023/09/01 05:38:21;;;;;;;;;;;;;;;25.20;47.13;101253.44;5040418;28;19921;-57
2023/09/01 05:40:56;;;;;;;;;;;;;;;25.21;47.15;101259.72;5038515;28;19921;-57
2023/09/01 05:43:24;;;;;;;;;;;;;;;25.21;47.22;101252.44;5041949;28;19928;-56
2023/09/01 05:45:52;;;;;;;;;;;;;;;25.20;47.31;101256.16;5038901;28;19928;-57
2023/09/01 05:48:24;;;;;;;;;;;;;;;25.20;47.37;101258.88;5051030;28;19928;-57
2023/09/01 05:50:51;;;;;;;;;;;;;;;25.21;47.23;101260.56;5045300;28;19920;-56
2023/09/01 05:53:18;;;;;;;;;;;;;;;25.21;47.48;101271.41;5046432;28;19920;-57
2023/09/01 05:55:45;;;;;;;;;;;;;;;25.21;47.40;101265.97;5041206;28;19921;-56
2023/09/01 05:58:12;;;;;;;;;;;;;;;25.22;47.66;101272.25;5047272;28;20816;-61
2023/09/01 06:00:40;;;;;;;;;;;;;;;25.22;47.35;101272.25;5040637;28;19961;-62
2023/09/01 06:03:07;;;;;;;;;;;;;;;25.24;47.69;101278.34;5040762;28;19925;-62
2023/09/01 06:05:34;;;;;;;;;;;;;;;25.23;47.50;101280.19;5040250;28;19921;-62
2023/09/01 06:08:02;;;;;;;;;;;;;;;25.24;47.64;101283.75;5039351;28;19928;-57
2023/09/01 06:10:30;;;;;;;;;;;;;;;25.24;47.76;101281.94;5041454;28;19951;-56
2023/09/01 06:12:57;;;;;;;;;;;;;;;25.24;47.81;101284.63;5040474;28;20383;-57
2023/09/01 06:15:24;;;;;;;;;;;;;;;25.26;48.04;101281.75;5039266;28;19925;-57
2023/09/01 06:17:51;;;;;;;;;;;;;;;25.26;48.16;101281.75;5039272;28;19928;-57
2023/09/01 06:20:18;;;;;;;;;;;;;;;25.27;48.39;101297.84;5041001;28;19928;-57
2023/09/01 06:22:47;;;;;;;;;;;;;;;25.27;48.34;101297.00;5041342;28;19920;-57
2023/09/01 06:25:15;;;;;;;;;;;;;;;25.28;48.39;101298.69;5039245;28;19921;-56
2023/09/01 06:27:42;;;;;;;;;;;;;;;25.29;48.64;101303.13;5046385;28;19932;-57
2023/09/01 06:30:09;;;;;;;;;;;;;;;25.29;48.71;101301.25;5041499;28;19921;-57
2023/09/01 06:32:36;;;;;;;;;;;;;;;25.30;48.82;101302.94;5043214;28;20358;-56
2023/09/01 06:35:04;;;;;;;;;;;;;;;25.30;48.95;101307.53;5037420;28;19921;-56
2023/09/01 06:37:31;;;;;;;;;;;;;;;25.32;48.88;101313.63;5040986;28;19921;-58
2023/09/01 06:39:58;;;;;;;;;;;;;;;25.32;48.79;101309.06;5046911;28;20294;-63
2023/09/01 06:42:25;;;;;;;;;;;;;;;25.33;49.19;101305.34;5043344;28;19921;-62
2023/09/01 06:44:52;;;;;;;;;;;;;;;25.35;48.98;101316.00;5044721;28;20301;-59
2023/09/01 06:47:19;;;;;;;;;;;;;;;25.35;49.27;101316.00;5047709;28;19921;-57
2023/09/01 06:49:46;;;;;;;;;;;;;;;25.37;49.14;101324.84;5043772;28;19920;-60
2023/09/01 06:52:15;;;;;;;;;;;;;;;25.34;48.50;101325.16;5047215;28;19921;-61
2023/09/01 06:54:42;;;;;;;;;;;;;;;25.32;47.74;101325.34;5045712;28;19928;-61
2023/09/01 06:57:09;;;;;;;;;;;;;;;25.28;46.97;101325.78;5042547;28;19928;-61
2023/09/01 06:59:37;;;;;;;;;;;;;;;25.21;46.73;101331.00;5046294;28;19932;-61
2023/09/01 07:02:04;;;;;;;;;;;;;;;25.17;46.49;101328.78;5044633;28;19921;-61
2023/09/01 07:04:31;;;;;;;;;;;;;;;25.14;46.25;101329.94;5045086;28;19921;-61
2023/09/01 07:06:58;;;;;;;;;;;;;;;25.13;46.31;101336.38;5041932;28;19932;-61
2023/09/01 07:09:25;;;;;;;;;;;;;;;25.12;46.25;101349.06;5046634;28;19932;-61
2023/09/01 07:11:53;;;;;;;;;;;;;;;25.11;46.51;101347.34;5043080;28;20283;-61
2023/09/01 07:14:20;;;;;;;;;;;;;;;25.10;46.53;101340.25;5044805;28;20359;-61
2023/09/01 07:16:47;;;;;;;;;;;;;;;25.08;46.51;101344.09;5047001;28;19921;-61
2023/09/01 07:19:14;;;;;;;;;;;;;;;25.05;46.43;101352.53;5043183;28;19928;-57
2023/09/01 07:21:41;;;;;;;;;;;;;;;25.03;46.57;101352.66;5046088;28;19920;-57
2023/09/01 07:24:08;;;;;;;;;;;;;;;25.04;46.44;101356.25;5044968;28;19947;-57
2023/09/01 07:26:35;;;;;;;;;;;;;;;25.05;46.77;101350.66;5041231;28;19931;-56
2023/09/01 07:29:03;;;;;;;;;;;;;;;25.09;47.00;101353.94;5046515;28;19928;-60
2023/09/01 07:31:30;;;;;;;;;;;;;;;25.12;46.88;101359.91;5042617;28;20387;-60
2023/09/01 07:33:57;;;;;;;;;;;;;;;25.13;47.08;101358.91;5044295;28;20310;-60
2023/09/01 07:36:24;;;;;;;;;;;;;;;25.14;47.45;101366.00;5046475;28;20383;-61
2023/09/01 07:38:51;;;;;;;;;;;;;;;25.08;47.34;101365.78;5042641;28;19920;-57
2023/09/01 07:41:19;;;;;;;;;;;;;;;25.02;47.47;101359.09;5045667;28;19927;-57
2023/09/01 07:43:46;;;;;;;;;;;;;;;25.00;47.40;101354.88;5043867;28;20314;-59
2023/09/01 07:46:13;;;;;;;;;;;;;;;24.99;47.25;101362.13;5041211;28;19928;-59
2023/09/01 07:48:40;;;;;;;;;;;;;;;24.99;47.60;101363.97;5045031;28;20382;-59
2023/09/01 07:51:08;;;;;;;;;;;;;;;24.96;47.70;101357.03;5042180;28;19948;-59
2023/09/01 07:53:36;;;;;;;;;;;;;;;24.94;47.90;101356.31;5043335;28;19925;-58
2023/09/01 07:56:04;;;;;;;;;;;;;;;24.94;48.07;101369.88;5040006;28;19921;-59
2023/09/01 07:58:31;;;;;;;;;;;;;;;24.92;47.98;101366.47;5045618;28;19921;-56
2023/09/01 08:00:59;;;;;;;;;;;;;;;24.86;48.06;101367.09;5041933;28;19921;-56
2023/09/01 08:03:26;;;;;;;;;;;;;;;24.83;48.47;101370.97;5043748;28;19925;-56
2023/09/01 08:05:54;;;;;;;;;;;;;;;24.81;48.46;101367.56;5046092;28;19920;-56
2023/09/01 08:08:21;;;;;;;;;;;;;;;24.79;48.59;101371.41;5042633;28;19942;-58
2023/09/01 08:10:48;;;;;;;;;;;;;;;24.74;48.71;101369.19;5045519;28;19920;-59
2023/09/01 08:13:15;;;;;;;;;;;;;;;24.74;48.74;101366.47;5041954;28;19924;-59
2023/09/01 08:15:43;;;;;;;;;;;;;;;24.73;49.08;101370.19;5040708;28;19921;-59
2023/09/01 08:18:10;;;;;;;;;;;;;;;24.71;49.22;101374.03;5045364;28;19921;-59
2023/09/01 08:20:37;;;;;;;;;;;;;;;24.70;49.46;101369.66;5041848;28;20286;-59
2023/09/01 08:23:04;;;;;;;;;;;;;;;24.71;49.76;101371.34;5043958;28;19921;-59
2023/09/01 08:25:32;;;;;;;;;;;;;;;24.72;49.68;101370.34;5045852;28;19928;-59
2023/09/01 08:28:00;;;;;;;;;;;;;;;24.72;49.81;101379.31;5041919;28;19921;-59
2023/09/01 08:30:27;;;;;;;;;;;;;;;24.73;49.92;101382.88;5044968;28;19927;-59
2023/09/01 08:32:54;;;;;;;;;;;;;;;24.76;49.85;101377.16;5042723;28;19921;-59
2023/09/01 08:35:21;;;;;;;;;;;;;;;24.78;49.82;101378.69;5040462;28;19928;-59
2023/09/01 08:37:48;;;;;;;;;;;;;;;24.81;49.83;101375.69;5045333;28;19940;-59
2023/09/01 08:40:18;;;;;;;;;;;;;;;24.82;49.88;101363.84;5041646;28;19932;-59
2023/09/01 08:42:47;;;;;;;;;;;;;;;24.84;49.86;101366.41;5043561;28;19921;-59
2023/09/01 08:45:14;;;;;;;;;;;;;;;24.84;49.77;101356.44;5045888;28;20309;-59
2023/09/01 08:47:44;;;;;;;;;;;;;;;24.85;49.92;101351.84;5041379;28;19943;-59
2023/09/01 08:50:12;;;;;;;;;;;;;;;24.85;49.67;101349.16;5044780;28;19920;-58
2023/09/01 08:52:42;;;;;;;;;;;;;;;24.86;49.72;101357.09;5043154;28;20298;-58
2023/09/01 08:55:10;;;;;;;;;;;;;;;24.86;49.96;101354.38;5040201;28;19927;-59
2023/09/01 08:57:38;;;;;;;;;;;;;;;24.87;49.80;101357.94;5041373;28;20326;-59
2023/09/01 09:00:07;;;;;;;;;;;;;;;24.86;49.64;101353.53;5045333;28;19921;-58
2023/09/01 09:02:35;;;;;;;;;;;;;;;24.86;49.59;101353.53;5046942;28;19921;-58
2023/09/01 09:05:03;;;;;;;;;;;;;;;24.86;49.73;101348.13;5044455;28;19921;-58
2023/09/01 09:07:30;;;;;;;;;;;;;;;24.88;49.37;101346.97;5046386;28;19921;-58
2023/09/01 09:09:59;;;;;;;;;;;;;;;24.91;49.36;101352.09;5048741;28;19920;-59
2023/09/01 09:12:36;;;;;;;;;;;;;;;24.94;49.54;101352.78;5048202;28;19925;-59
2023/09/01 09:15:04;;;;;;;;;;;;;;;24.95;49.43;101355.31;5044593;28;20406;-59
2023/09/01 09:17:44;;;;;;;;;;;;;;;24.96;49.49;101350.78;5048513;28;20367;-59
2023/09/01 09:20:14;;;;;;;;;;;;;;;24.95;49.28;101358.03;5046609;28;19928;-58
2023/09/01 09:22:50;;;;;;;;;;;;;;;24.96;49.11;101353.47;5049083;28;19932;-58
2023/09/01 09:25:24;;;;;;;;;;;;;;;24.96;49.12;101356.19;5044833;28;19920;-58
2023/09/01 09:27:52;;;;;;;;;;;;;;;24.97;49.14;101355.19;5040596;28;19941;-58
2023/09/01 09:30:19;;;;;;;;;;;;;;;24.97;49.26;101352.47;5049129;28;20026;-58
2023/09/01 09:32:48;;;;;;;;;;;;;;;24.96;49.20;101357.03;5043907;28;20310;-58
2023/09/01 09:35:19;;;;;;;;;;;;;;;24.98;49.31;101360.41;5048114;28;20264;-58
2023/09/01 09:37:57;;;;;;;;;;;;;;;25.01;49.47;101362.81;5045497;28;19925;-59
2023/09/01 09:40:24;;;;;;;;;;;;;;;25.02;49.22;101358.25;5043584;28;19936;-58
2023/09/01 09:42:51;;;;;;;;;;;;;;;25.02;49.29;101353.69;5048058;28;19921;-58
2023/09/01 09:45:23;;;;;;;;;;;;;;;25.03;49.52;101366.22;5044546;28;19928;-58
2023/09/01 09:47:51;;;;;;;;;;;;;;;25.03;49.19;101360.78;5045158;28;20294;-59
2023/09/01 09:50:18;;;;;;;;;;;;;;;25.05;48.96;101364.22;5048670;28;19928;-58
2023/09/01 09:52:48;;;;;;;;;;;;;;;25.07;49.20;101361.34;5044341;28;19920;-59
2023/09/01 09:55:25;;;;;;;;;;;;;;;25.09;49.23;101359.38;5047783;28;19921;-59
2023/09/01 09:57:56;;;;;;;;;;;;;;;25.08;49.22;101353.06;5048659;28;20303;-59
2023/09/01 10:00:26;;;;;;;;;;;;;;;25.10;49.17;101351.06;5044151;28;19920;-58
2023/09/01 10:02:56;;;;;;;;;;;;;;;25.10;49.15;101355.66;5047595;28;19921;-58
2023/09/01 10:05:24;;;;;;;;;;;;;;;25.11;49.15;101351.91;5045828;28;20386;-58
2023/09/01 10:07:52;;;;;;;;;;;;;;;25.12;49.07;101353.66;5043074;28;19921;-58
2023/09/01 10:10:19;;;;;;;;;;;;;;;25.11;48.64;101355.47;5047618;28;19921;-59
2023/09/01 10:12:47;;;;;;;;;;;;;;;25.10;48.62;101348.38;5043360;28;19924;-59
2023/09/01 10:15:15;;;;;;;;;;;;;;;25.10;48.37;101348.38;5045712;28;19928;-59
2023/09/01 10:17:42;;;;;;;;;;;;;;;25.10;48.24;101351.06;5048228;28;19935;-58
2023/09/01 10:20:09;;;;;;;;;;;;;;;25.10;48.23;101345.66;5043805;28;19920;-59
2023/09/01 10:22:40;;;;;;;;;;;;;;;25.11;48.23;101347.34;5035436;28;19925;-59
2023/09/01 10:25:15;;;;;;;;;;;;;;;25.12;48.23;101343.66;5035932;28;20307;-59
2023/09/01 10:28:00;;;;;;;;;;;;;;;25.15;48.38;101340.59;5035617;28;19925;-59
2023/09/01 10:30:30;;;;;;;;;;;;;;;25.18;48.57;101339.44;5035348;28;19920;-59
2023/09/01 10:33:08;;;;;;;;;;;;;;;25.21;48.51;101339.13;5035762;28;20290;-59
2023/09/01 10:35:38;;;;;;;;;;;;;;;25.22;48.51;101332.72;5035365;28;20371;-59
2023/09/01 10:38:08;;;;;;;;;;;;;;;25.23;48.50;101333.56;5035083;28;19928;-58
2023/09/01 10:40:40;;;;;;;;;;;;;;;25.23;48.50;101336.25;5035189;28;19921;-59
2023/09/01 10:43:08;;;;;;;;;;;;;;;25.24;48.66;101341.53;5035250;28;20396;-58
2023/09/01 10:45:35;;;;;;;;;;;;;;;25.25;48.60;101334.25;5035193;28;20375;-59
2023/09/01 10:48:04;;;;;;;;;;;;;;;25.25;48.81;101334.25;5035459;28;19928;-58
2023/09/01 10:50:33;;;;;;;;;;;;;;;25.26;48.83;101333.25;5034982;28;19928;-58
2023/09/01 10:53:18;;;;;;;;;;;;;;;25.25;48.54;101334.25;5035004;28;19921;-58
2023/09/01 10:56:04;;;;;;;;;;;;;;;25.25;48.66;101328.84;5035172;28;19921;-58
2023/09/01 10:58:43;;;;;;;;;;;;;;;25.26;48.46;101330.53;5038981;28;19928;-59
2023/09/01 11:01:29;;;;;;;;;;;;;;;25.26;48.60;101325.13;5047264;28;19928;-59
2023/09/01 11:04:15;;;;;;;;;;;;;;;25.27;49.02;101329.50;5046690;28;19931;-59
2023/09/01 11:06:54;;;;;;;;;;;;;;;25.27;49.07;101326.81;5047073;28;19925;-59
2023/09/01 11:09:44;;;;;;;;;;;;;;;25.29;49.20;101322.09;5042882;28;19928;-63
2023/09/01 11:12:13;;;;;;;;;;;;;;;25.30;49.11;101330.06;5040202;28;19921;-63
2023/09/01 11:14:57;;;;;;;;;;;;;;;25.30;49.30;101324.63;5047160;28;19948;-60
2023/09/01 11:17:38;;;;;;;;;;;;;;;25.31;49.13;101320.06;5042710;28;19921;-60
2023/09/01 11:20:08;;;;;;;;;;;;;;;25.33;49.25;101326.19;5036918;28;19928;-60
2023/09/01 11:22:40;;;;;;;;;;;;;;;25.34;49.09;101317.88;5039521;28;19946;-60
2023/09/01 11:25:08;;;;;;;;;;;;;;;25.37;48.95;101316.72;5045479;28;19925;-60
2023/09/01 11:27:35;;;;;;;;;;;;;;;25.38;48.73;101315.72;5041555;28;19921;-59
2023/09/01 11:30:04;;;;;;;;;;;;;;;25.42;48.82;101311.66;5043932;28;19979;-58
2023/09/01 11:32:32;;;;;;;;;;;;;;;25.41;48.82;101304.56;5046844;28;19921;-63
2023/09/01 11:34:59;;;;;;;;;;;;;;;25.41;48.73;101304.56;5043332;28;20359;-63
2023/09/01 11:37:33;;;;;;;;;;;;;;;25.43;48.95;101299.81;5045769;28;19920;-63
2023/09/01 11:40:04;;;;;;;;;;;;;;;25.44;49.02;101304.19;5045897;28;20422;-60
2023/09/01 11:42:33;;;;;;;;;;;;;;;25.43;49.43;101302.50;5037774;28;19928;-60
2023/09/01 11:45:02;;;;;;;;;;;;;;;25.44;49.36;101298.78;5042448;28;19928;-57
2023/09/01 11:47:30;;;;;;;;;;;;;;;25.44;49.46;101297.94;5037736;28;19921;-52
2023/09/01 11:49:57;;;;;;;;;;;;;;;25.45;49.39;101310.50;5046490;28;20298;-50
2023/09/01 11:52:24;;;;;;;;;;;;;;;25.45;49.37;101296.94;5033979;28;19921;-50
2023/09/01 11:54:54;;;;;;;;;;;;;;;25.44;49.36;101296.06;5033895;28;19921;-48
2023/09/01 11:57:22;;;;;;;;;;;;;;;25.45;49.54;101299.66;5034168;28;20252;-52
2023/09/01 11:59:49;;;;;;;;;;;;;;;25.46;49.35;101301.34;5033919;28;19921;-57
2023/09/01 12:02:16;;;;;;;;;;;;;;;25.45;49.36;101300.50;5033892;28;19928;-57
2023/09/01 12:04:53;;;;;;;;;;;;;;;25.45;49.21;101311.34;5033620;28;19924;-57
2023/09/01 12:07:23;;;;;;;;;;;;;;;25.45;49.32;101303.22;5033660;28;19928;-57
2023/09/01 12:09:52;;;;;;;;;;;;;;;25.45;49.33;101300.50;5033684;28;19920;-57
2023/09/01 12:12:19;;;;;;;;;;;;;;;25.47;49.28;101297.63;5038140;28;19928;-58
2023/09/01 12:14:47;;;;;;;;;;;;;;;25.47;49.22;101294.91;5045328;28;19928;-57
2023/09/01 12:17:16;;;;;;;;;;;;;;;25.46;49.03;101299.50;5037331;28;19921;-58
2023/09/01 12:19:46;;;;;;;;;;;;;;;25.45;48.72;101295.09;5037351;28;19921;-57
2023/09/01 12:22:14;;;;;;;;;;;;;;;25.46;48.64;101288.66;5039710;28;19928;-57
2023/09/01 12:24:55;;;;;;;;;;;;;;;25.47;48.59;101286.78;5038755;28;20395;-58
2023/09/01 12:27:22;;;;;;;;;;;;;;;25.48;48.89;101288.47;5045990;28;19921;-58
2023/09/01 12:29:49;;;;;;;;;;;;;;;25.47;48.75;101284.91;5041686;28;19928;-57